Page Field Fort Myers US
ICAO: KFMY
IATA: FMY
Category: Medium
Scheduled Services: No

Elevation: 17 ft
TransAlt. 18000 ft.

Airport Communications:
FORT MYERS APP/DEP:126.8
ATIS:123.725
CLNC DEL:121.7
CTAF:119
GND:121.7
MIAMI RDO:122.2
TWR:119
UNICOM:130.55

KFMY Zoom In..

Runways:

(A) RW 05 length 6406 ft width 150 ft
ILS 110.70 / hdg 51

(B) RW 13 length 4912 ft width 150 ft
---- / hdg 133

(C) RW 23 length 6406 ft width 150 ft
---- / hdg 231

(D) RW 31 length 4912 ft width 150 ft
---- / hdg 313

Location; KFMY
Day. 20 / Time. 02.53 Zulu
* Altimeter: 30.00
* Temperature: 28° c. 82.4°f.
* Wind from: 280° Speed 03 kn.
Dewpoint: 25° c.
Visibility: 5101 m.
Clouds: Clear (automated report).

KFMY 200253Z AUTO 28003KT CLR 28/25 A3000 RMK AO2 SLP161 T02830250 51016 $


Wind From 280°
Speed 03 kn.

 
 
jpsmedia.com for Web Design worldairports.se 2018   terms of use